• Join FlightAware (Why Join?)
  • Login
  • US Flag 
11:34PM EDT


 

Airport Tracker/Info


-or-


 

Live Flight TrackerFlight Track Log ✈ SWA2147 ✈ 26-Apr-2013 ✈ KPHX - KMDW

Flight Track Log - Related Links

Times and Time Zones

All times are in EDT time to prevent confusion due to time zone crossing. See the SWA2147 flight status page for this flight to view local times or setup timezone preferences in your user account.

Time Position Orientation Groundspeed Altitude Reporting Facility
EDT Latitude Longitude Course Direction KTS MPH feet Rate Location/Type
06:03PM 33.4333 -112.0333 268° West 191 220 2,100  Level Phoenix TRACON
06:03PM 33.4322 -112.0653 268° West 178 205 3,100 1,860 Climbing Albuquerque Center
06:04PM 33.4339 -112.1375 272° West 216 249 5,100 2,280 Climbing Albuquerque Center
06:05PM 33.4692 -112.2028 303° West 266 306 7,900 2,760 Climbing Albuquerque Center
06:06PM 33.5228 -112.1456 42° Northeast 276 318 10,900 2,520 Climbing Albuquerque Center
06:07PM 33.5403 -112.0508 77° East 293 337 13,200 2,280 Climbing Albuquerque Center
06:08PM 33.5656 -111.9228 77° East 334 384 15,600 2,040 Climbing Albuquerque Center
06:09PM 33.5875 -111.8039 77° East 365 420 17,400 1,560 Climbing Albuquerque Center
06:10PM 33.6125 -111.6750 77° East 397 457 18,900 1,920 Climbing Albuquerque Center
06:11PM 33.6378 -111.5386 77° East 420 483 21,400 2,220 Climbing Albuquerque Center
06:12PM 33.6631 -111.4033 77° East 421 484 23,500 1,740 Climbing Albuquerque Center
06:13PM 33.6981 -111.2353 76° East 437 503 25,100 1,440 Climbing Albuquerque Center
06:14PM 33.7500 -111.0975 66° East 454 522 26,500 1,260 Climbing Albuquerque Center
06:16PM 33.7989 -110.9542 68° East 463 533 27,800 1,080 Climbing Albuquerque Center
06:17PM 33.8511 -110.8081 67° East 473 544 28,800 900 Climbing Albuquerque Center
06:18PM 33.9042 -110.6572 67° East 484 557 29,700 840 Climbing Albuquerque Center
06:19PM 33.9592 -110.5017 67° East 500 575 30,600 1,320 Climbing Albuquerque Center
06:20PM 34.0269 -110.3081 67° East 511 588 32,500 1,500 Climbing Albuquerque Center
06:21PM 34.0806 -110.1522 67° East 509 586 33,700 1,020 Climbing Albuquerque Center
06:22PM 34.1394 -109.9833 67° East 504 580 34,600 840 Climbing Albuquerque Center
06:23PM 34.1906 -109.8331 68° East 507 583 35,500 900 Climbing Albuquerque Center
06:24PM 34.2503 -109.6567 68° East 508 585 36,500 720 Climbing Albuquerque Center
06:25PM 34.3011 -109.5067 68° East 506 582 37,000 240 Climbing Albuquerque Center
06:26PM 34.3514 -109.3578 68° East 505 581 37,000  Level Albuquerque Center
06:27PM 34.4103 -109.1833 68° East 503 579 37,000  Level Albuquerque Center
06:28PM 34.4564 -109.0319 70° East 503 579 37,000  Level Albuquerque Center
06:30PM 34.5467 -108.7014 72° East 499 574 37,000  Level Albuquerque Center
06:31PM 34.5961 -108.5228 71° East 502 578 37,000  Level Albuquerque Center
06:32PM 34.6367 -108.3700 72° East 506 582 37,000  Level Albuquerque Center
06:33PM 34.6803 -108.2064 72° East 508 585 37,000  Level Albuquerque Center
06:34PM 34.7250 -108.0439 71° East 509 586 37,000  Level Albuquerque Center
06:35PM 34.7681 -107.8786 72° East 512 589 37,000  Level Albuquerque Center
06:36PM 34.8208 -107.6822 72° East 511 588 37,000  Level Albuquerque Center
06:37PM 34.8639 -107.5164 72° East 513 590 37,000  Level Albuquerque Center
06:38PM 34.9058 -107.3536 73° East 509 586 37,000  Level Albuquerque Center
06:39PM 34.9528 -107.1708 73° East 509 586 37,000  Level Albuquerque Center
06:40PM 34.9956 -107.0097 72° East 504 580 37,000  Level Albuquerque Center
06:41PM 35.0339 -106.8564 73° East 497 572 37,000  Level Albuquerque Center
06:42PM 35.0928 -106.6878 67° East 487 560 37,000  Level Albuquerque Center
06:43PM 35.1469 -106.5406 66° East 492 566 37,000  Level Albuquerque Center
06:44PM 35.2031 -106.3894 66° East 500 575 37,000  Level Albuquerque Center
06:45PM 35.2589 -106.2378 66° East 493 567 37,000  Level Albuquerque Center
06:46PM 35.3172 -106.0750 66° East 489 563 37,000  Level Albuquerque Center
06:47PM 35.3819 -105.8986 66° East 504 580 37,000  Level Albuquerque Center
06:48PM 35.4447 -105.7336 65° Northeast 505 581 37,000  Level Albuquerque Center
06:50PM 35.5019 -105.5750 66° East 504 580 37,000  Level Albuquerque Center
06:51PM 35.5550 -105.4178 67° East 496 571 37,000  Level Albuquerque Center
06:52PM 35.6122 -105.2558 66° East 504 580 37,000  Level Albuquerque Center
06:53PM 35.6761 -105.0958 64° Northeast 510 587 37,000  Level Albuquerque Center
06:54PM 35.7567 -104.9514 55° Northeast 508 585 37,000  Level Albuquerque Center
06:55PM 35.8375 -104.8031 56° Northeast 510 587 37,000  Level Albuquerque Center
06:56PM 35.9200 -104.6533 56° Northeast 518 596 37,000  Level Albuquerque Center
06:57PM 35.9989 -104.5039 57° Northeast 515 593 37,000  Level Albuquerque Center
06:58PM 36.0783 -104.3550 57° Northeast 512 589 37,000  Level Albuquerque Center
06:59PM 36.1739 -104.1794 56° Northeast 519 597 37,000  Level Albuquerque Center
07:00PM 36.2539 -104.0311 56° Northeast 515 593 37,000  Level Albuquerque Center
07:01PM 36.3333 -103.8814 57° Northeast 515 593 37,000  Level Albuquerque Center
07:02PM 36.3994 -103.7200 63° Northeast 517 595 37,000  Level Albuquerque Center
07:03PM 36.4597 -103.5578 65° Northeast 514 592 37,000  Level Albuquerque Center
07:04PM 36.5228 -103.3972 64° Northeast 513 590 37,000  Level Albuquerque Center
07:05PM 36.5858 -103.2381 64° Northeast 510 587 37,000  Level Albuquerque Center
07:06PM 36.6492 -103.0764 64° Northeast 508 585 37,000  Level Albuquerque Center
07:07PM 36.7156 -102.8989 65° Northeast 507 583 37,000  Level Albuquerque Center
07:08PM 36.7719 -102.7469 65° Northeast 506 582 37,000  Level Albuquerque Center
07:09PM 36.8289 -102.5950 65° Northeast 506 582 37,000  Level Albuquerque Center
07:10PM 36.8981 -102.4097 65° Northeast 510 587 37,000  Level Albuquerque Center
07:11PM 36.9542 -102.2567 65° Northeast 508 585 37,000  Level Albuquerque Center
07:12PM 37.0208 -102.0789 65° Northeast 507 583 37,000  Level Albuquerque Center
07:13PM 37.0764 -101.9250 66° East 507 583 37,000  Level Albuquerque Center
07:14PM 37.1322 -101.7711 65° Northeast 507 583 37,000  Level Albuquerque Center
07:15PM 37.1778 -101.6408 66° East 508 585 37,000  Level Kansas City Center
07:16PM 37.2336 -101.4867 66° East 508 585 37,000  Level Kansas City Center
07:17PM 37.2892 -101.3333 65° Northeast 507 583 37,000  Level Kansas City Center
07:18PM 37.3536 -101.1525 66° East 509 586 37,000  Level Kansas City Center
07:19PM 37.4092 -100.9972 66° East 512 589 37,000  Level Kansas City Center
07:20PM 37.4719 -100.8178 66° East 510 587 37,000  Level Kansas City Center
07:21PM 37.5333 -100.6467 66° East 510 587 37,000  Level Kansas City Center
07:22PM 37.5914 -100.4814 66° East 512 589 37,000  Level Kansas City Center
07:23PM 37.6450 -100.3267 66° East 513 590 37,000  Level Kansas City Center
07:24PM 37.7081 -100.1433 66° East 513 590 37,000  Level Kansas City Center
07:25PM 37.7644 -99.9839 66° East 518 596 37,000  Level Kansas City Center
07:26PM 37.8272 -99.7994 67° East 515 593 37,000  Level Kansas City Center
07:27PM 37.8803 -99.6408 67° East 513 590 37,000  Level Kansas City Center
07:28PM 37.9394 -99.4642 67° East 514 592 37,000  Level Kansas City Center
07:29PM 37.9947 -99.2958 67° East 517 595 37,000  Level Kansas City Center
07:30PM 38.0494 -99.1278 67° East 517 595 37,000  Level Kansas City Center
07:31PM 38.1072 -98.9589 66° East 520 598 37,000  Level Kansas City Center
07:32PM 38.1647 -98.7886 67° East 523 602 37,000  Level Kansas City Center
07:33PM 38.2219 -98.6183 67° East 521 600 37,000  Level Kansas City Center
07:34PM 38.2764 -98.4508 67° East 512 589 37,000  Level Kansas City Center
07:35PM 38.3417 -98.2489 68° East 511 588 37,000  Level Kansas City Center
07:36PM 38.3950 -98.0833 68° East 503 579 37,000  Level Kansas City Center
07:37PM 38.4481 -97.9186 68° East 500 575 37,000  Level Kansas City Center
07:38PM 38.5006 -97.7528 68° East 501 577 37,000  Level Kansas City Center
07:40PM 38.5528 -97.5883 68° East 498 573 37,000  Level Kansas City Center
07:41PM 38.6053 -97.4222 68° East 501 577 37,000  Level Kansas City Center
07:42PM 38.6572 -97.2567 68° East 500 575 37,000  Level Kansas City Center
07:43PM 38.7086 -97.0892 68° East 505 581 37,000  Level Kansas City Center
07:44PM 38.7597 -96.9236 68° East 500 575 37,000  Level Kansas City Center
07:45PM 38.8219 -96.7244 68° East 501 577 37,000  Level Kansas City Center
07:46PM 38.8725 -96.5603 68° East 496 571 37,000  Level Kansas City Center
07:47PM 38.9192 -96.4008 69° East 493 567 37,000  Level Kansas City Center
07:48PM 38.9758 -96.2167 68° East 494 568 37,000  Level Kansas City Center
07:49PM 39.0206 -96.0597 70° East 490 564 37,000  Level Kansas City Center
07:50PM 39.0672 -95.9028 69° East 490 564 37,000  Level Kansas City Center
07:51PM 39.1217 -95.7186 69° East 494 568 37,000  Level Kansas City Center
07:52PM 39.1683 -95.5625 69° East 489 563 37,000  Level Kansas City Center
07:53PM 39.2236 -95.3725 69° East 491 565 37,000  Level Kansas City Center
07:54PM 39.2708 -95.2072 70° East 492 566 37,000  Level Kansas City Center
07:55PM 39.3164 -95.0506 69° East 490 564 37,000  Level Kansas City Center
07:56PM 39.3619 -94.8922 70° East 489 563 37,000  Level Kansas City Center
07:57PM 39.4156 -94.7056 70° East 496 571 37,000  Level Kansas City Center
07:58PM 39.4608 -94.5444 70° East 496 571 37,000  Level Kansas City Center
07:59PM 39.5136 -94.3569 70° East 497 572 37,000  Level Kansas City Center
08:00PM 39.5592 -94.1942 70° East 501 577 37,000  Level Kansas City Center
08:01PM 39.6117 -94.0050 70° East 501 577 37,000  Level Kansas City Center
08:02PM 39.6561 -93.8422 70° East 500 575 37,000  Level Kansas City Center
08:03PM 39.7008 -93.6814 70° East 508 585 37,000  Level Kansas City Center
08:04PM 39.7464 -93.5100 71° East 507 583 37,000  Level Kansas City Center
08:05PM 39.8017 -93.3094 70° East 495 570 37,000  Level Kansas City Center
08:06PM 39.8469 -93.1389 71° East 500 575 37,000  Level Kansas City Center
08:07PM 39.8908 -92.9678 71° East 504 580 37,000 -360 Level Kansas City Center
08:08PM 39.9361 -92.7983 71° East 505 581 36,300 -780 Descending Kansas City Center
08:09PM 39.9822 -92.6256 71° East 509 586 35,400 -840 Descending Kansas City Center
08:10PM 40.0358 -92.4181 71° East 514 592 34,600 -900 Descending Kansas City Center
08:11PM 40.0797 -92.2481 71° East 508 585 33,600 -960 Descending Kansas City Center
08:12PM 40.1239 -92.0736 72° East 513 590 32,700 -900 Descending Kansas City Center
08:13PM 40.1700 -91.9006 71° East 512 589 31,800 -840 Descending Kansas City Center
08:14PM 40.2111 -91.7289 73° East 504 580 31,000 -420 Descending Kansas City Center
08:15PM 40.2628 -91.5239 72° East 499 574 31,000  Level Kansas City Center
08:16PM 40.3061 -91.3547 71° East 496 571 31,000  Level Kansas City Center
08:18PM 40.3483 -91.1839 72° East 496 571 31,000  Level Kansas City Center
08:19PM 40.3903 -91.0094 72° East 499 574 31,000  Level Kansas City Center
08:19PM 40.4075 -90.9394 72° East 501 577 31,000  Level Chicago Center
08:20PM 40.4506 -90.7644 72° East 503 579 31,000  Level Chicago Center
08:21PM 40.4922 -90.5881 73° East 505 581 31,000  Level Chicago Center
08:22PM 40.5339 -90.4131 73° East 505 581 31,000  Level Chicago Center
08:23PM 40.5775 -90.2308 72° East 511 588 31,000 -1,440 Level Chicago Center
08:24PM 40.6197 -90.0494 73° East 522 601 28,100 -3,000 Descending Chicago Center
08:25PM 40.6692 -89.8319 73° East 521 600 24,800 -2,460 Descending Chicago Center
08:26PM 40.7436 -89.6883 56° Northeast 491 565 23,100 -2,040 Descending Chicago Center
08:27PM 40.8200 -89.5586 52° Northeast 453 521 20,600 -2,460 Descending Chicago Center
08:28PM 40.8981 -89.4264 52° Northeast 419 482 18,100 -1,860 Descending Chicago Center
08:29PM 40.9661 -89.3114 52° Northeast 402 463 16,800 -1,200 Descending Chicago Center
08:30PM 41.0300 -89.2039 52° Northeast 378 435 15,700 -1,080 Descending Chicago Center
08:31PM 41.0969 -89.0928 51° Northeast 358 412 14,600 -1,200 Descending Chicago Center
08:32PM 41.1542 -88.9936 53° Northeast 344 396 13,300 -1,500 Descending Chicago Center
08:33PM 41.2114 -88.8975 52° Northeast 336 387 11,600 -1,500 Descending Chicago Center
08:34PM 41.2639 -88.8042 53° Northeast 320 368 10,300 -1,020 Descending Chicago Center
08:35PM 41.3119 -88.7231 52° Northeast 285 328 9,600 -960 Descending Chicago Center
08:36PM 41.3925 -88.6506 34° Northeast 295 339 8,400 -1,140 Descending Chicago Center
08:37PM 41.4500 -88.5736 45° Northeast 299 344 7,300 -1,080 Descending Chicago Center
08:38PM 41.4869 -88.4747 63° Northeast 299 344 6,200 -1,080 Descending Chicago Center
08:40PM 41.5228 -88.3794 63° Northeast 290 334 5,100 -600 Descending Chicago Center
08:41PM 41.5439 -88.2831 74° East 274 315 5,000 -60 Descending Chicago Center
08:42PM 41.5606 -88.1819 78° East 277 319 5,000  Level Chicago Center
08:43PM 41.5778 -88.0828 77° East 274 315 5,000 -60 Level Chicago Center
08:44PM 41.5989 -87.9622 77° East 275 316 4,900 -660 Descending Chicago Center
08:45PM 41.6336 -87.8692 63° Northeast 279 321 3,700 -960 Descending Chicago Center
08:45PM 41.6500 -87.8000 72° East 264 304 3,300 -600 Descending Chicago TRACON
08:46PM 41.6833 -87.7333 56° Northeast 223 257 2,800 -720 Descending Chicago TRACON
08:47PM 41.7333 -87.6833 37° Northeast 206 237 2,000 -480 Descending Chicago TRACON
08:48PM 41.7833 -87.6667 14° North 201 231 1,900 -240 Descending Chicago TRACON
08:49PM 41.8167 -87.7000 323° Northwest 160 184 1,600 -600 Descending Chicago TRACON
08:50PM 41.8000 -87.7333 236° Southwest 133 153 800 -840 Descending Chicago TRACON